createdAt,value
2017-10-15T00:00:57.574Z,8.30
2017-10-15T00:03:25.855Z,9.23
2017-10-15T00:05:53.351Z,7.43
2017-10-15T00:08:20.896Z,6.77
2017-10-15T00:10:48.374Z,7.70
2017-10-15T00:13:15.959Z,9.13
2017-10-15T00:15:43.443Z,6.70
2017-10-15T00:18:11.196Z,8.97
2017-10-15T00:20:38.677Z,11.97
2017-10-15T00:23:06.159Z,10.20
2017-10-15T00:25:33.685Z,12.27
2017-10-15T00:28:01.966Z,11.93
2017-10-15T00:30:29.479Z,10.90
2017-10-15T00:32:56.966Z,11.50
2017-10-15T00:35:24.829Z,13.17
2017-10-15T00:37:52.294Z,13.93
2017-10-15T00:40:20.661Z,11.40
2017-10-15T00:42:48.977Z,10.17
2017-10-15T00:45:16.426Z,11.30
2017-10-15T00:47:43.935Z,10.03
2017-10-15T00:50:11.431Z,10.10
2017-10-15T00:52:39.812Z,9.60
2017-10-15T00:55:07.305Z,8.40
2017-10-15T00:57:34.770Z,9.33
2017-10-15T01:00:02.269Z,9.77
2017-10-15T01:02:29.756Z,10.23
2017-10-15T01:04:57.246Z,10.30
2017-10-15T01:07:24.727Z,10.60
2017-10-15T01:09:52.345Z,11.30
2017-10-15T01:12:19.832Z,12.67
2017-10-15T01:14:47.297Z,9.77
2017-10-15T01:17:16.293Z,7.53
2017-10-15T01:19:44.174Z,8.03
2017-10-15T01:22:12.445Z,7.70
2017-10-15T01:24:40.707Z,7.70
2017-10-15T01:27:08.213Z,7.53
2017-10-15T01:29:35.729Z,7.90
2017-10-15T01:32:03.197Z,7.17
2017-10-15T01:34:30.709Z,7.10
2017-10-15T01:36:58.180Z,7.37
2017-10-15T01:39:25.657Z,6.43
2017-10-15T01:41:53.141Z,7.00
2017-10-15T01:44:21.657Z,7.40
2017-10-15T01:46:49.113Z,6.83
2017-10-15T01:49:16.588Z,7.80
2017-10-15T01:51:44.078Z,7.90
2017-10-15T01:54:12.337Z,7.47
2017-10-15T01:56:40.223Z,7.93
2017-10-15T01:59:07.726Z,8.90
2017-10-15T02:01:35.267Z,10.13
2017-10-15T02:04:03.781Z,8.90
2017-10-15T02:06:31.291Z,8.77
2017-10-15T02:08:58.787Z,8.33
2017-10-15T02:11:26.258Z,8.07
2017-10-15T02:13:54.011Z,7.00
2017-10-15T02:16:21.476Z,8.13
2017-10-15T02:18:48.956Z,7.00
2017-10-15T02:21:16.455Z,6.57
2017-10-15T02:23:43.953Z,7.10
2017-10-15T02:26:11.442Z,6.10
2017-10-15T02:28:39.684Z,6.43
2017-10-15T02:31:07.184Z,6.80
2017-10-15T02:33:35.471Z,9.50
2017-10-15T02:36:03.726Z,7.67
2017-10-15T02:38:31.206Z,5.93
2017-10-15T02:40:59.459Z,8.43
2017-10-15T02:43:26.974Z,7.33
2017-10-15T02:45:55.194Z,6.10
2017-10-15T02:48:23.462Z,6.83
2017-10-15T02:50:51.713Z,6.93
2017-10-15T02:53:19.195Z,7.70
2017-10-15T02:55:46.662Z,11.53
2017-10-15T02:58:14.132Z,12.20
2017-10-15T03:00:42.385Z,12.03
2017-10-15T03:03:09.904Z,10.30
2017-10-15T03:05:37.406Z,10.10
2017-10-15T03:08:04.875Z,8.70
2017-10-15T03:10:32.688Z,7.73
2017-10-15T03:13:00.178Z,7.47
2017-10-15T03:15:27.642Z,7.20
2017-10-15T03:17:55.149Z,6.80
2017-10-15T03:20:22.623Z,7.17
2017-10-15T03:22:50.113Z,6.80
2017-10-15T03:25:18.359Z,7.20
2017-10-15T03:27:45.855Z,7.70
2017-10-15T03:30:14.107Z,7.27
2017-10-15T03:32:41.594Z,8.70
2017-10-15T03:35:09.868Z,8.57
2017-10-15T03:37:38.135Z,8.30
2017-10-15T03:40:06.406Z,9.13
2017-10-15T03:42:33.861Z,7.67
2017-10-15T03:45:01.381Z,7.60
2017-10-15T03:47:28.855Z,8.73
2017-10-15T03:49:56.352Z,7.50
2017-10-15T03:52:24.622Z,6.57
2017-10-15T03:54:52.077Z,6.30
2017-10-15T03:57:19.542Z,7.10
2017-10-15T03:59:47.780Z,6.40
2017-10-15T04:02:15.511Z,6.20
2017-10-15T04:04:42.975Z,7.40
2017-10-15T04:07:10.479Z,7.20
2017-10-15T04:09:39.581Z,7.50
2017-10-15T04:12:07.808Z,6.67
2017-10-15T04:14:35.287Z,6.10
2017-10-15T04:17:02.736Z,6.80
2017-10-15T04:19:30.477Z,6.63
2017-10-15T04:21:57.937Z,6.57
2017-10-15T04:24:25.402Z,7.17
2017-10-15T04:26:52.861Z,6.77
2017-10-15T04:29:20.328Z,7.60
2017-10-15T04:31:47.998Z,7.63
2017-10-15T04:34:15.475Z,8.30
2017-10-15T04:36:42.940Z,9.97
2017-10-15T04:39:10.449Z,9.10
2017-10-15T04:41:38.006Z,9.40
2017-10-15T04:44:05.474Z,9.07
2017-10-15T04:46:32.954Z,8.53
2017-10-15T04:49:00.428Z,9.03
2017-10-15T04:51:27.887Z,8.43
2017-10-15T04:53:55.345Z,8.77
2017-10-15T04:56:24.015Z,7.90
2017-10-15T04:58:51.480Z,7.83
2017-10-15T05:01:18.945Z,7.50
2017-10-15T05:03:46.422Z,8.27
2017-10-15T05:06:13.909Z,7.83
2017-10-15T05:08:41.405Z,8.47
2017-10-15T05:11:08.873Z,7.60
2017-10-15T05:13:36.325Z,8.20
2017-10-15T05:16:03.787Z,8.17
2017-10-15T05:18:31.263Z,8.10
2017-10-15T05:20:59.493Z,7.37
2017-10-15T05:23:26.984Z,6.47
2017-10-15T05:25:55.245Z,9.97
2017-10-15T05:28:23.535Z,8.23
2017-10-15T05:30:51.787Z,8.00
2017-10-15T05:33:19.257Z,8.13
2017-10-15T05:35:46.754Z,8.27
2017-10-15T05:38:14.289Z,7.70
2017-10-15T05:40:41.776Z,8.63
2017-10-15T05:43:09.264Z,8.47
2017-10-15T05:45:36.740Z,8.57
2017-10-15T05:48:04.983Z,8.13
2017-10-15T05:50:32.473Z,9.90
2017-10-15T05:52:59.979Z,8.67
2017-10-15T05:55:28.065Z,9.70
2017-10-15T05:57:55.538Z,7.97
2017-10-15T06:00:23.013Z,8.43
2017-10-15T06:02:50.493Z,6.93
2017-10-15T06:05:17.986Z,6.70
2017-10-15T06:07:45.521Z,7.03
2017-10-15T06:10:13.751Z,6.90
2017-10-15T06:12:41.225Z,7.60
2017-10-15T06:15:08.689Z,7.37
2017-10-15T06:17:36.954Z,7.27
2017-10-15T06:20:04.464Z,7.50
2017-10-15T06:22:31.973Z,8.80
2017-10-15T06:24:59.486Z,7.50
2017-10-15T06:27:26.960Z,7.40
2017-10-15T06:29:54.459Z,8.33
2017-10-15T06:32:22.710Z,8.77
2017-10-15T06:34:50.175Z,7.33
2017-10-15T06:37:17.646Z,5.67
2017-10-15T06:39:45.912Z,7.40
2017-10-15T06:42:14.185Z,6.53
2017-10-15T06:44:42.539Z,6.93
2017-10-15T06:47:10.001Z,6.80
2017-10-15T06:49:37.477Z,6.43
2017-10-15T06:52:04.984Z,7.07
2017-10-15T06:54:32.449Z,6.80
2017-10-15T06:56:59.952Z,6.37
2017-10-15T06:59:27.423Z,5.60
2017-10-15T07:01:55.690Z,6.30
2017-10-15T07:04:23.152Z,6.27
2017-10-15T07:06:50.604Z,6.77
2017-10-15T07:09:18.097Z,7.40
2017-10-15T07:11:45.577Z,6.50
2017-10-15T07:14:13.151Z,6.10
2017-10-15T07:16:40.601Z,6.30
2017-10-15T07:19:08.092Z,5.47
2017-10-15T07:21:35.551Z,5.97
2017-10-15T07:24:03.067Z,5.47
2017-10-15T07:26:30.573Z,4.90
2017-10-15T07:28:58.831Z,4.70
2017-10-15T07:31:26.347Z,5.20
2017-10-15T07:33:53.840Z,5.40
2017-10-15T07:36:21.878Z,4.40
2017-10-15T07:38:49.435Z,4.40
2017-10-15T07:41:17.057Z,4.90
2017-10-15T07:43:44.771Z,4.90
2017-10-15T07:46:12.352Z,4.50
2017-10-15T07:48:40.554Z,4.80
2017-10-15T07:51:09.471Z,4.10
2017-10-15T07:53:36.985Z,4.87
2017-10-15T07:56:04.542Z,4.50
2017-10-15T07:58:32.044Z,4.30
2017-10-15T08:00:59.995Z,5.20
2017-10-15T08:03:28.974Z,4.80
2017-10-15T08:05:56.477Z,5.30
2017-10-15T08:08:23.973Z,5.10
2017-10-15T08:10:51.486Z,5.57
2017-10-15T08:13:20.867Z,5.30
2017-10-15T08:15:49.163Z,5.87
2017-10-15T08:18:17.091Z,6.93
2017-10-15T08:20:44.556Z,5.80
2017-10-15T08:23:12.034Z,5.80
2017-10-15T08:25:39.550Z,6.27
2017-10-15T08:28:07.027Z,6.53
2017-10-15T08:30:35.131Z,6.43
2017-10-15T08:33:02.612Z,5.57
2017-10-15T08:35:30.553Z,6.03
2017-10-15T08:37:58.041Z,7.13
2017-10-15T08:40:25.534Z,8.23
2017-10-15T08:42:55.152Z,9.00
2017-10-15T08:45:22.767Z,10.23
2017-10-15T08:47:50.427Z,10.50
2017-10-15T08:50:18.275Z,10.40
2017-10-15T08:52:46.073Z,8.60
2017-10-15T08:55:14.282Z,10.00
2017-10-15T08:57:41.865Z,9.10
2017-10-15T09:00:09.369Z,9.77
2017-10-15T09:02:36.875Z,9.03
2017-10-15T09:05:04.403Z,8.30
2017-10-15T09:07:31.891Z,7.37
2017-10-15T09:10:00.134Z,8.00
2017-10-15T09:12:27.623Z,8.30
2017-10-15T09:14:55.874Z,8.00
2017-10-15T09:17:24.172Z,7.17
2017-10-15T09:19:52.416Z,6.57
2017-10-15T09:22:19.935Z,7.50
2017-10-15T09:24:47.438Z,7.23
2017-10-15T09:27:15.713Z,7.23
2017-10-15T09:29:43.238Z,7.87
2017-10-15T09:32:10.761Z,8.90
2017-10-15T09:34:39.069Z,9.27
2017-10-15T09:37:06.594Z,8.80
2017-10-15T09:39:35.310Z,8.70
2017-10-15T09:42:02.807Z,9.40
2017-10-15T09:44:30.300Z,8.93
2017-10-15T09:46:58.568Z,9.00
2017-10-15T09:49:26.801Z,8.90
2017-10-15T09:51:54.828Z,8.73
2017-10-15T09:54:22.360Z,8.67
2017-10-15T09:56:50.609Z,8.10
2017-10-15T09:59:18.109Z,8.70
2017-10-15T10:01:46.342Z,7.77
2017-10-15T10:04:13.870Z,8.60
2017-10-15T10:06:41.929Z,8.40
2017-10-15T10:09:09.448Z,7.27
2017-10-15T10:11:36.957Z,6.50
2017-10-15T10:14:04.480Z,6.27
2017-10-15T10:16:32.744Z,6.40
2017-10-15T10:19:00.997Z,7.10
2017-10-15T10:21:28.522Z,6.17
2017-10-15T10:23:56.012Z,6.37
2017-10-15T10:26:23.556Z,6.40
2017-10-15T10:28:51.031Z,5.30
2017-10-15T10:31:18.552Z,6.87
2017-10-15T10:33:46.120Z,6.20
2017-10-15T10:36:13.916Z,4.80
2017-10-15T10:38:41.435Z,4.80
2017-10-15T10:41:08.909Z,5.27
2017-10-15T10:43:36.688Z,4.40
2017-10-15T10:46:04.165Z,5.53
2017-10-15T10:48:31.621Z,5.20
2017-10-15T10:50:59.648Z,5.23
2017-10-15T10:53:27.144Z,5.33
2017-10-15T10:55:55.013Z,4.53
2017-10-15T10:58:22.475Z,5.37
2017-10-15T11:00:49.967Z,4.70
2017-10-15T11:03:17.492Z,4.47
2017-10-15T11:05:45.745Z,5.33
2017-10-15T11:08:14.271Z,5.10
2017-10-15T11:10:42.519Z,5.30
2017-10-15T11:13:10.058Z,5.03
2017-10-15T11:15:37.532Z,5.43
2017-10-15T11:18:05.451Z,4.97
2017-10-15T11:20:33.703Z,5.73
2017-10-15T11:23:01.928Z,5.10
2017-10-15T11:25:29.412Z,6.00
2017-10-15T11:27:56.893Z,5.80
2017-10-15T11:30:24.400Z,5.50
2017-10-15T11:32:51.874Z,5.90
2017-10-15T11:35:19.623Z,6.00
2017-10-15T11:37:47.097Z,6.80
2017-10-15T11:40:14.594Z,6.53
2017-10-15T11:42:42.097Z,6.17
2017-10-15T11:45:09.564Z,7.67
2017-10-15T11:47:37.071Z,5.73
2017-10-15T11:50:04.579Z,5.53
2017-10-15T11:52:32.057Z,5.90
2017-10-15T11:54:59.634Z,6.03
2017-10-15T11:57:27.885Z,6.17
2017-10-15T11:59:55.401Z,5.40
2017-10-15T12:02:23.803Z,6.00
2017-10-15T12:04:51.288Z,5.07
2017-10-15T12:07:18.771Z,5.80
2017-10-15T12:09:46.249Z,6.40
2017-10-15T12:12:13.741Z,5.00
2017-10-15T12:14:41.209Z,6.07
2017-10-15T12:17:08.715Z,5.57
2017-10-15T12:19:36.193Z,5.73
2017-10-15T12:22:03.709Z,6.40
2017-10-15T12:24:31.192Z,4.80
2017-10-15T12:26:58.650Z,5.10
2017-10-15T12:29:26.432Z,6.13
2017-10-15T12:31:53.912Z,5.13
2017-10-15T12:34:21.428Z,5.10
2017-10-15T12:36:48.909Z,5.23
2017-10-15T12:39:16.726Z,5.40
2017-10-15T12:41:44.980Z,5.83
2017-10-15T12:44:12.458Z,6.40
2017-10-15T12:46:40.731Z,6.30
2017-10-15T12:49:08.225Z,6.10
2017-10-15T12:51:36.681Z,6.10
2017-10-15T12:54:04.181Z,5.67
2017-10-15T12:56:31.714Z,5.80
2017-10-15T12:58:59.241Z,5.70
2017-10-15T13:01:26.709Z,6.23
2017-10-15T13:03:54.196Z,6.67
2017-10-15T13:06:21.674Z,7.40
2017-10-15T13:08:49.183Z,6.07
2017-10-15T13:11:16.670Z,6.70
2017-10-15T13:13:44.179Z,5.40
2017-10-15T13:16:11.660Z,6.60
2017-10-15T13:18:39.154Z,6.30
2017-10-15T13:21:06.653Z,5.83
2017-10-15T13:23:34.127Z,6.20
2017-10-15T13:26:02.371Z,6.30
2017-10-15T13:28:29.850Z,6.97
2017-10-15T13:30:58.102Z,6.63
2017-10-15T13:33:25.610Z,6.23
2017-10-15T13:35:53.108Z,6.67
2017-10-15T13:38:20.572Z,6.60
2017-10-15T13:40:48.059Z,6.77
2017-10-15T13:43:15.536Z,6.50
2017-10-15T13:45:43.523Z,6.70
2017-10-15T13:48:11.009Z,7.47
2017-10-15T13:50:38.509Z,6.73
2017-10-15T13:53:06.015Z,6.60
2017-10-15T13:55:33.528Z,7.00
2017-10-15T13:58:01.066Z,6.50
2017-10-15T14:00:28.688Z,6.70
2017-10-15T14:02:56.229Z,11.80
2017-10-15T14:05:23.716Z,7.37
2017-10-15T14:07:51.209Z,6.37
2017-10-15T14:10:18.725Z,7.37
2017-10-15T14:12:46.199Z,7.20
2017-10-15T14:15:13.744Z,7.93
2017-10-15T14:17:41.292Z,7.30
2017-10-15T14:20:08.798Z,7.97
2017-10-15T14:22:36.310Z,7.77
2017-10-15T14:25:03.787Z,6.77
2017-10-15T14:27:31.271Z,7.30
2017-10-15T14:29:59.507Z,7.60
2017-10-15T14:32:27.000Z,7.70
2017-10-15T14:34:55.258Z,7.10
2017-10-15T14:37:22.758Z,7.70
2017-10-15T14:39:50.261Z,7.37
2017-10-15T14:42:17.758Z,7.27
2017-10-15T14:44:45.374Z,6.90
2017-10-15T14:47:12.911Z,7.10
2017-10-15T14:49:40.401Z,7.40
2017-10-15T14:52:07.888Z,7.33
2017-10-15T14:54:36.486Z,7.67
2017-10-15T14:57:03.979Z,8.73
2017-10-15T14:59:31.459Z,7.57
2017-10-15T15:01:58.959Z,7.43
2017-10-15T15:04:27.182Z,6.63
2017-10-15T15:06:54.701Z,7.80
2017-10-15T15:09:22.329Z,7.27
2017-10-15T15:11:49.864Z,7.30
2017-10-15T15:14:17.408Z,8.60
2017-10-15T15:16:44.882Z,7.70
2017-10-15T15:19:12.432Z,6.43
2017-10-15T15:21:39.898Z,7.43
2017-10-15T15:24:07.401Z,7.23
2017-10-15T15:26:34.945Z,7.73
2017-10-15T15:29:02.471Z,7.40
2017-10-15T15:31:30.024Z,7.77
2017-10-15T15:33:57.544Z,7.80
2017-10-15T15:36:25.052Z,8.00
2017-10-15T15:38:52.531Z,7.20
2017-10-15T15:41:20.071Z,9.03
2017-10-15T15:43:47.569Z,8.03
2017-10-15T15:46:15.930Z,7.23
2017-10-15T15:48:43.409Z,7.80
2017-10-15T15:51:10.919Z,7.10
2017-10-15T15:53:38.435Z,8.00
2017-10-15T15:56:05.957Z,8.00
2017-10-15T15:58:33.469Z,7.70
2017-10-15T16:01:00.988Z,7.90
2017-10-15T16:03:28.488Z,8.70
2017-10-15T16:05:56.017Z,7.87
2017-10-15T16:08:24.281Z,8.00
2017-10-15T16:10:52.562Z,8.23
2017-10-15T16:13:20.804Z,7.37
2017-10-15T16:15:49.270Z,8.10
2017-10-15T16:18:16.773Z,8.50
2017-10-15T16:20:45.296Z,8.10
2017-10-15T16:23:12.802Z,7.90
2017-10-15T16:25:40.322Z,8.23
2017-10-15T16:28:07.879Z,8.20
2017-10-15T16:30:35.417Z,8.40
2017-10-15T16:33:02.991Z,7.40
2017-10-15T16:35:30.475Z,7.40
2017-10-15T16:37:58.217Z,7.90
2017-10-15T16:40:25.682Z,8.07
2017-10-15T16:42:53.166Z,7.70
2017-10-15T16:45:20.656Z,8.67
2017-10-15T16:47:48.146Z,8.40
2017-10-15T16:50:15.662Z,8.53
2017-10-15T16:52:43.920Z,8.93
2017-10-15T16:55:11.420Z,7.97
2017-10-15T16:57:38.897Z,8.50
2017-10-15T17:00:06.594Z,8.20
2017-10-15T17:02:34.107Z,8.20
2017-10-15T17:05:01.642Z,9.67
2017-10-15T17:07:29.136Z,9.17
2017-10-15T17:09:56.620Z,8.50
2017-10-15T17:12:24.923Z,9.77
2017-10-15T17:14:52.416Z,12.57
2017-10-15T17:17:20.140Z,13.60
2017-10-15T17:19:47.864Z,13.30
2017-10-15T17:22:15.591Z,11.47
2017-10-15T17:24:43.087Z,9.90
2017-10-15T17:27:10.885Z,10.47
2017-10-15T17:29:38.880Z,10.87
2017-10-15T17:32:06.352Z,9.23
2017-10-15T17:34:34.809Z,20.60
2017-10-15T17:37:02.298Z,11.07
2017-10-15T17:39:29.804Z,11.80
2017-10-15T17:41:58.443Z,10.90
2017-10-15T17:44:25.946Z,10.37
2017-10-15T17:46:54.185Z,10.03
2017-10-15T17:49:21.710Z,9.97
2017-10-15T17:51:49.200Z,11.17
2017-10-15T17:54:16.710Z,10.70
2017-10-15T17:56:44.206Z,10.50
2017-10-15T17:59:11.707Z,9.23
2017-10-15T18:01:39.254Z,10.60
2017-10-15T18:04:06.801Z,12.40
2017-10-15T18:06:34.292Z,14.10
2017-10-15T18:09:02.560Z,13.37
2017-10-15T18:11:30.399Z,12.23
2017-10-15T18:13:57.910Z,13.13
2017-10-15T18:16:25.395Z,13.93
2017-10-15T18:18:53.013Z,13.30
2017-10-15T18:21:21.277Z,12.80
2017-10-15T18:23:48.781Z,13.57
2017-10-15T18:26:16.284Z,14.70
2017-10-15T18:28:44.187Z,13.43
2017-10-15T18:31:11.747Z,12.87
2017-10-15T18:33:39.266Z,14.27
2017-10-15T18:36:07.287Z,13.57
2017-10-15T18:38:34.781Z,12.23
2017-10-15T18:41:02.281Z,13.43
2017-10-15T18:43:30.551Z,14.97
2017-10-15T18:45:59.316Z,13.23
2017-10-15T18:48:26.819Z,13.63
2017-10-15T18:50:54.334Z,13.40
2017-10-15T18:53:21.850Z,13.80
2017-10-15T18:55:49.372Z,14.80
2017-10-15T18:58:17.665Z,14.17
2017-10-15T19:00:45.207Z,15.20
2017-10-15T19:03:12.709Z,14.13
2017-10-15T19:05:40.281Z,15.23
2017-10-15T19:08:07.819Z,12.77
2017-10-15T19:10:35.343Z,13.63
2017-10-15T19:13:03.883Z,28.00
2017-10-15T19:15:31.495Z,16.77
2017-10-15T19:18:00.890Z,13.77
2017-10-15T19:20:28.510Z,13.03
2017-10-15T19:22:56.010Z,15.40
2017-10-15T19:25:23.636Z,12.20
2017-10-15T19:27:51.333Z,12.80
2017-10-15T19:30:18.870Z,11.83
2017-10-15T19:32:46.360Z,11.20
2017-10-15T19:35:13.895Z,12.00
2017-10-15T19:37:41.501Z,19.50
2017-10-15T19:40:08.979Z,14.20
2017-10-15T19:42:37.233Z,14.27
2017-10-15T19:45:04.989Z,12.47
2017-10-15T19:47:32.532Z,16.60
2017-10-15T19:50:00.788Z,15.10
2017-10-15T19:52:29.091Z,15.40
2017-10-15T19:54:56.612Z,15.10
2017-10-15T19:57:24.075Z,15.07
2017-10-15T19:59:52.769Z,12.13
2017-10-15T20:02:20.331Z,13.10
2017-10-15T20:04:48.606Z,13.50
2017-10-15T20:07:16.854Z,14.00
2017-10-15T20:09:44.334Z,15.53
2017-10-15T20:12:11.834Z,13.83
2017-10-15T20:14:39.325Z,12.80
2017-10-15T20:17:06.805Z,12.20
2017-10-15T20:19:34.398Z,17.20
2017-10-15T20:22:01.944Z,18.00
2017-10-15T20:24:29.478Z,17.67
2017-10-15T20:26:57.781Z,16.70
2017-10-15T20:29:25.261Z,21.50
2017-10-15T20:31:52.780Z,20.37
2017-10-15T20:34:20.539Z,17.23
2017-10-15T20:36:48.043Z,19.27
2017-10-15T20:39:15.565Z,17.20
2017-10-15T20:41:43.864Z,16.67
2017-10-15T20:44:11.331Z,17.17
2017-10-15T20:46:38.832Z,17.70
2017-10-15T20:49:06.309Z,18.37
2017-10-15T20:51:34.582Z,17.43
2017-10-15T20:54:02.859Z,16.70
2017-10-15T20:56:31.105Z,18.57
2017-10-15T20:58:58.586Z,18.00
2017-10-15T21:01:26.869Z,17.90
2017-10-15T21:03:54.357Z,17.37
2017-10-15T21:06:21.824Z,16.90
2017-10-15T21:08:50.240Z,16.70
2017-10-15T21:11:17.743Z,17.70
2017-10-15T21:13:45.972Z,16.03
2017-10-15T21:16:13.440Z,14.30
2017-10-15T21:18:40.924Z,16.00
2017-10-15T21:21:09.158Z,16.33
2017-10-15T21:23:36.652Z,14.30
2017-10-15T21:26:04.928Z,13.23
2017-10-15T21:28:32.413Z,13.60
2017-10-15T21:30:59.890Z,13.40
2017-10-15T21:33:27.368Z,13.47
2017-10-15T21:35:54.842Z,14.73
2017-10-15T21:38:22.365Z,14.10
2017-10-15T21:40:49.864Z,14.90
2017-10-15T21:43:17.350Z,15.60
2017-10-15T21:45:44.822Z,15.27
2017-10-15T21:48:13.112Z,16.33
2017-10-15T21:50:40.741Z,18.30
2017-10-15T21:53:08.995Z,19.67
2017-10-15T21:55:36.537Z,18.73
2017-10-15T21:58:04.027Z,19.67
2017-10-15T22:00:31.520Z,21.70
2017-10-15T22:02:59.016Z,15.50
2017-10-15T22:05:26.691Z,16.60
2017-10-15T22:07:55.219Z,20.17
2017-10-15T22:10:22.731Z,17.87
2017-10-15T22:12:50.269Z,19.47
2017-10-15T22:15:17.814Z,20.03
2017-10-15T22:17:45.294Z,19.03
2017-10-15T22:20:12.809Z,19.60
2017-10-15T22:22:40.348Z,21.93
2017-10-15T22:25:07.835Z,21.97
2017-10-15T22:27:35.554Z,24.60
2017-10-15T22:30:03.808Z,22.63
2017-10-15T22:32:31.281Z,18.10
2017-10-15T22:34:58.814Z,15.40
2017-10-15T22:37:26.299Z,15.23
2017-10-15T22:39:54.574Z,21.73
2017-10-15T22:42:22.831Z,22.03
2017-10-15T22:44:50.346Z,21.03
2017-10-15T22:47:17.826Z,20.53
2017-10-15T22:49:45.306Z,18.73
2017-10-15T22:52:12.794Z,14.10
2017-10-15T22:54:40.380Z,14.20
2017-10-15T22:57:07.918Z,12.03
2017-10-15T22:59:35.402Z,12.13
2017-10-15T23:02:03.373Z,11.83
2017-10-15T23:04:30.972Z,12.37
2017-10-15T23:06:58.497Z,15.53
2017-10-15T23:09:26.043Z,13.23
2017-10-15T23:11:53.531Z,12.53
2017-10-15T23:14:21.246Z,13.57
2017-10-15T23:16:48.755Z,14.20
2017-10-15T23:19:16.207Z,15.97
2017-10-15T23:21:43.696Z,12.60
2017-10-15T23:24:11.940Z,14.00
2017-10-15T23:26:39.697Z,14.03
2017-10-15T23:29:07.163Z,13.13
2017-10-15T23:31:34.810Z,16.20
2017-10-15T23:34:02.303Z,13.80
2017-10-15T23:36:30.550Z,14.77
2017-10-15T23:38:58.041Z,13.83
2017-10-15T23:41:25.514Z,13.93
2017-10-15T23:43:53.032Z,16.03
2017-10-15T23:46:20.493Z,15.40
2017-10-15T23:48:48.013Z,15.90
2017-10-15T23:51:16.376Z,14.80
2017-10-15T23:53:43.831Z,15.37
2017-10-15T23:56:11.311Z,17.07
2017-10-15T23:58:38.787Z,14.73
